createdAt,value
2024-02-08T00:00:16.722Z,1002.15
2024-02-08T00:01:17.031Z,1002.08
2024-02-08T00:02:16.804Z,1002.12
2024-02-08T00:03:16.939Z,1002.12
2024-02-08T00:04:36.814Z,1002.12
2024-02-08T00:05:17.103Z,1002.02
2024-02-08T00:06:16.765Z,1002.12
2024-02-08T00:07:17.094Z,1002.12
2024-02-08T00:08:16.817Z,1002.16
2024-02-08T00:09:18.965Z,1002.17
2024-02-08T00:10:16.762Z,1002.14
2024-02-08T00:11:17.029Z,1002.21
2024-02-08T00:12:16.760Z,1002.21
2024-02-08T00:13:16.538Z,1002.17
2024-02-08T00:14:38.729Z,1002.20
2024-02-08T00:15:16.550Z,1002.22
2024-02-08T00:16:16.825Z,1002.21
2024-02-08T00:17:16.550Z,1002.15
2024-02-08T00:18:22.216Z,1002.15
2024-02-08T00:19:24.162Z,1002.16
2024-02-08T00:20:16.927Z,1002.17
2024-02-08T00:21:16.667Z,1002.15
2024-02-08T00:22:16.848Z,1002.17
2024-02-08T00:23:16.727Z,1002.18
2024-02-08T00:24:36.839Z,1002.18
2024-02-08T00:25:16.612Z,1002.22
2024-02-08T00:26:16.904Z,1002.25
2024-02-08T00:27:16.595Z,1002.29
2024-02-08T00:28:16.848Z,1002.28
2024-02-08T00:29:16.661Z,1002.27
2024-02-08T00:30:16.333Z,1002.18
2024-02-08T00:31:18.174Z,1002.13
2024-02-08T00:32:16.422Z,1002.09
2024-02-08T00:33:17.408Z,1002.16
2024-02-08T00:34:36.454Z,1002.14
2024-02-08T00:35:16.715Z,1002.18
2024-02-08T00:36:16.421Z,1002.14
2024-02-08T00:37:16.710Z,1002.18
2024-02-08T00:38:16.524Z,1002.22
2024-02-08T00:39:16.675Z,1002.22
2024-02-08T00:40:16.411Z,1002.19
2024-02-08T00:41:18.639Z,1002.23
2024-02-08T00:42:16.469Z,1002.26
2024-02-08T00:43:16.689Z,1002.24
2024-02-08T00:44:36.473Z,1002.27
2024-02-08T00:45:16.687Z,1002.30
2024-02-08T00:46:17.883Z,1002.35
2024-02-08T00:47:16.199Z,1002.36
2024-02-08T00:48:16.547Z,1002.38
2024-02-08T00:49:16.809Z,1002.42
2024-02-08T00:50:16.445Z,1002.37
2024-02-08T00:51:16.263Z,1002.44
2024-02-08T00:52:16.415Z,1002.39
2024-02-08T00:53:16.259Z,1002.43
2024-02-08T00:54:36.448Z,1002.44
2024-02-08T00:55:16.192Z,1002.37
2024-02-08T00:56:16.456Z,1002.37
2024-02-08T00:57:16.182Z,1002.36
2024-02-08T00:58:16.438Z,1002.42
2024-02-08T00:59:16.183Z,1002.40
2024-02-08T01:00:16.430Z,1002.37
2024-02-08T01:01:16.200Z,1002.37
2024-02-08T01:02:16.456Z,1002.38
2024-02-08T01:03:16.277Z,1002.39
2024-02-08T01:04:36.462Z,1002.34
2024-02-08T01:05:16.383Z,1002.31
2024-02-08T01:06:18.527Z,1002.28
2024-02-08T01:07:16.215Z,1002.26
2024-02-08T01:08:17.478Z,1002.24
2024-02-08T01:09:16.231Z,1002.22
2024-02-08T01:10:15.947Z,1002.27
2024-02-08T01:11:16.290Z,1002.23
2024-02-08T01:12:16.436Z,1002.22
2024-02-08T01:13:16.238Z,1002.22
2024-02-08T01:14:35.952Z,1002.29
2024-02-08T01:15:16.287Z,1002.30
2024-02-08T01:16:16.055Z,1002.27
2024-02-08T01:17:16.364Z,1002.30
2024-02-08T01:18:16.069Z,1002.27
2024-02-08T01:19:16.370Z,1002.27
2024-02-08T01:20:16.086Z,1002.28
2024-02-08T01:21:16.280Z,1002.36
2024-02-08T01:22:16.018Z,1002.35
2024-02-08T01:23:16.337Z,1002.36
2024-02-08T01:24:45.262Z,1002.34
2024-02-08T01:25:16.062Z,1002.34
2024-02-08T01:26:15.860Z,1002.34
2024-02-08T01:27:16.054Z,1002.33
2024-02-08T01:28:15.814Z,1002.32
2024-02-08T01:29:16.059Z,1002.26
2024-02-08T01:30:21.678Z,1002.30
2024-02-08T01:31:15.944Z,1002.30
2024-02-08T01:32:16.200Z,1002.30
2024-02-08T01:33:15.927Z,1002.35
2024-02-08T01:34:36.270Z,1002.32
2024-02-08T01:35:15.938Z,1002.27
2024-02-08T01:36:16.169Z,1002.29
2024-02-08T01:37:16.297Z,1002.25
2024-02-08T01:38:16.195Z,1002.25
2024-02-08T01:39:15.927Z,1002.20
2024-02-08T01:40:15.696Z,1002.17
2024-02-08T01:41:16.021Z,1002.20
2024-02-08T01:42:15.705Z,1002.19
2024-02-08T01:43:15.947Z,1002.19
2024-02-08T01:44:37.713Z,1002.19
2024-02-08T01:45:15.995Z,1002.11
2024-02-08T01:46:15.780Z,1002.13
2024-02-08T01:47:16.021Z,1002.12
2024-02-08T01:48:15.870Z,1002.12
2024-02-08T01:49:16.073Z,1002.17
2024-02-08T01:50:16.819Z,1002.14
2024-02-08T01:51:16.010Z,1002.14
2024-02-08T01:52:15.769Z,1002.17
2024-02-08T01:53:16.081Z,1002.10
2024-02-08T01:54:36.658Z,1002.12
2024-02-08T01:55:15.582Z,1002.11
2024-02-08T01:56:15.892Z,1002.09
2024-02-08T01:57:15.594Z,1002.08
2024-02-08T01:58:15.824Z,1002.06
2024-02-08T01:59:15.620Z,1002.02
2024-02-08T02:00:15.827Z,1002.04
2024-02-08T02:01:17.678Z,1002.01
2024-02-08T02:02:15.896Z,1002.03
2024-02-08T02:03:15.617Z,1002.02
2024-02-08T02:04:36.931Z,1002.05
2024-02-08T02:05:15.830Z,1002.01
2024-02-08T02:06:15.473Z,1002.01
2024-02-08T02:07:15.662Z,1001.95
2024-02-08T02:08:15.429Z,1002.01
2024-02-08T02:09:15.665Z,1001.94
2024-02-08T02:10:16.008Z,1001.94
2024-02-08T02:11:15.804Z,1001.91
2024-02-08T02:12:15.422Z,1001.89
2024-02-08T02:13:15.651Z,1001.95
2024-02-08T02:14:37.437Z,1001.94
2024-02-08T02:15:15.792Z,1001.95
2024-02-08T02:16:15.559Z,1002.01
2024-02-08T02:17:15.760Z,1001.96
2024-02-08T02:18:15.672Z,1001.96
2024-02-08T02:19:15.759Z,1002.07
2024-02-08T02:20:15.597Z,1001.99
2024-02-08T02:21:15.729Z,1002.01
2024-02-08T02:22:15.478Z,1001.98
2024-02-08T02:23:15.729Z,1001.93
2024-02-08T02:24:37.610Z,1001.91
2024-02-08T02:25:15.374Z,1001.85
2024-02-08T02:26:23.218Z,1001.82
2024-02-08T02:27:15.237Z,1001.78
2024-02-08T02:28:15.489Z,1001.80
2024-02-08T02:29:15.266Z,1001.72
2024-02-08T02:30:15.473Z,1001.70
2024-02-08T02:31:15.261Z,1001.69
2024-02-08T02:32:15.478Z,1001.70
2024-02-08T02:33:15.338Z,1001.68
2024-02-08T02:34:37.559Z,1001.64
2024-02-08T02:35:15.363Z,1001.59
2024-02-08T02:36:15.591Z,1001.60
2024-02-08T02:37:15.275Z,1001.60
2024-02-08T02:38:15.569Z,1001.57
2024-02-08T02:39:15.283Z,1001.56
2024-02-08T02:40:15.551Z,1001.55
2024-02-08T02:41:15.316Z,1001.52
2024-02-08T02:42:15.538Z,1001.54
2024-02-08T02:43:15.405Z,1001.54
2024-02-08T02:44:36.950Z,1001.56
2024-02-08T02:45:15.576Z,1001.57
2024-02-08T02:46:15.237Z,1001.53
2024-02-08T02:47:15.516Z,1001.52
2024-02-08T02:48:15.290Z,1001.47
2024-02-08T02:49:15.551Z,1001.47
2024-02-08T02:50:15.298Z,1001.45
2024-02-08T02:51:15.004Z,1001.47
2024-02-08T02:52:15.223Z,1001.43
2024-02-08T02:53:15.040Z,1001.34
2024-02-08T02:54:36.257Z,1001.33
2024-02-08T02:55:15.068Z,1001.35
2024-02-08T02:56:15.336Z,1001.40
2024-02-08T02:57:15.074Z,1001.38
2024-02-08T02:58:15.305Z,1001.34
2024-02-08T02:59:15.082Z,1001.40
2024-02-08T03:00:15.301Z,1001.36
2024-02-08T03:01:15.086Z,1001.35
2024-02-08T03:02:15.304Z,1001.34
2024-02-08T03:03:15.062Z,1001.46
2024-02-08T03:04:37.424Z,1001.42
2024-02-08T03:05:15.239Z,1001.45
2024-02-08T03:06:15.167Z,1001.45
2024-02-08T03:07:15.170Z,1001.45
2024-02-08T03:08:14.972Z,1001.41
2024-02-08T03:09:15.136Z,1001.36
2024-02-08T03:10:14.928Z,1001.33
2024-02-08T03:11:15.511Z,1001.30
2024-02-08T03:12:14.909Z,1001.34
2024-02-08T03:13:15.156Z,1001.35
2024-02-08T03:14:35.986Z,1001.28
2024-02-08T03:15:14.813Z,1001.27
2024-02-08T03:16:15.037Z,1001.21
2024-02-08T03:17:14.834Z,1001.16
2024-02-08T03:18:15.077Z,1001.12
2024-02-08T03:19:14.824Z,1001.10
2024-02-08T03:20:15.042Z,1001.07
2024-02-08T03:21:14.754Z,1001.04
2024-02-08T03:22:14.989Z,1001.05
2024-02-08T03:23:14.831Z,1001.11
2024-02-08T03:24:37.737Z,1001.16
2024-02-08T03:25:14.860Z,1001.17
2024-02-08T03:26:15.075Z,1001.17
2024-02-08T03:27:14.841Z,1001.17
2024-02-08T03:28:15.043Z,1001.20
2024-02-08T03:29:14.843Z,1001.21
2024-02-08T03:30:15.033Z,1001.24
2024-02-08T03:31:14.806Z,1001.21
2024-02-08T03:32:15.096Z,1001.21
2024-02-08T03:33:14.837Z,1001.27
2024-02-08T03:34:36.095Z,1001.37
2024-02-08T03:35:14.985Z,1001.38
2024-02-08T03:36:14.590Z,1001.42
2024-02-08T03:37:14.890Z,1001.41
2024-02-08T03:38:14.657Z,1001.43
2024-02-08T03:39:14.869Z,1001.34
2024-02-08T03:40:14.620Z,1001.35
2024-02-08T03:41:14.862Z,1001.30
2024-02-08T03:42:14.575Z,1001.34
2024-02-08T03:43:14.855Z,1001.33
2024-02-08T03:44:36.729Z,1001.34
2024-02-08T03:45:14.511Z,1001.37
2024-02-08T03:46:14.773Z,1001.33
2024-02-08T03:47:14.554Z,1001.28
2024-02-08T03:48:14.859Z,1001.26
2024-02-08T03:49:14.524Z,1001.26
2024-02-08T03:50:14.867Z,1001.24
2024-02-08T03:51:14.508Z,1001.22
2024-02-08T03:52:14.725Z,1001.29
2024-02-08T03:53:15.046Z,1001.24
2024-02-08T03:54:35.812Z,1001.19
2024-02-08T03:55:14.619Z,1001.20
2024-02-08T03:56:14.543Z,1001.18
2024-02-08T03:57:14.632Z,1001.20
2024-02-08T03:58:14.363Z,1001.17
2024-02-08T03:59:14.782Z,1001.13
2024-02-08T04:00:14.354Z,1001.10
2024-02-08T04:01:14.671Z,1001.05
2024-02-08T04:02:14.409Z,1001.11
2024-02-08T04:03:14.634Z,1001.11
2024-02-08T04:04:36.041Z,1001.12
2024-02-08T04:05:14.770Z,1001.08
2024-02-08T04:06:14.448Z,1001.01
2024-02-08T04:07:14.683Z,1001.03
2024-02-08T04:08:14.481Z,1001.08
2024-02-08T04:09:14.217Z,1001.04
2024-02-08T04:10:14.455Z,1001.01
2024-02-08T04:11:14.221Z,1001.01
2024-02-08T04:12:14.449Z,1000.97
2024-02-08T04:13:14.221Z,1001.03
2024-02-08T04:14:36.479Z,1000.98
2024-02-08T04:15:14.381Z,1000.91
2024-02-08T04:16:14.572Z,1000.87
2024-02-08T04:17:14.407Z,1000.88
2024-02-08T04:18:14.661Z,1000.88
2024-02-08T04:19:14.385Z,1000.82
2024-02-08T04:20:14.666Z,1000.84
2024-02-08T04:21:14.433Z,1000.90
2024-02-08T04:22:14.115Z,1000.88
2024-02-08T04:23:14.435Z,1000.89
2024-02-08T04:24:35.308Z,1000.88
2024-02-08T04:25:14.441Z,1000.95
2024-02-08T04:26:14.262Z,1000.95
2024-02-08T04:27:14.446Z,1000.98
2024-02-08T04:28:14.191Z,1001.02
2024-02-08T04:29:14.590Z,1001.06
2024-02-08T04:30:14.238Z,1001.07
2024-02-08T04:31:14.426Z,1001.06
2024-02-08T04:32:14.188Z,1001.02
2024-02-08T04:33:14.564Z,1000.95
2024-02-08T04:34:36.219Z,1000.96
2024-02-08T04:35:14.172Z,1000.98
2024-02-08T04:36:14.314Z,1000.98
2024-02-08T04:37:14.004Z,1000.95
2024-02-08T04:38:14.296Z,1000.94
2024-02-08T04:39:14.055Z,1000.95
2024-02-08T04:40:14.301Z,1000.98
2024-02-08T04:41:14.153Z,1000.94
2024-02-08T04:42:14.259Z,1000.94
2024-02-08T04:43:14.004Z,1000.90
2024-02-08T04:44:36.269Z,1000.92
2024-02-08T04:45:14.090Z,1000.89
2024-02-08T04:46:14.321Z,1000.89
2024-02-08T04:47:14.335Z,1000.99
2024-02-08T04:48:14.423Z,1000.96
2024-02-08T04:49:14.155Z,1000.94
2024-02-08T04:50:13.947Z,1000.96
2024-02-08T04:51:14.129Z,1000.92
2024-02-08T04:52:14.950Z,1000.90
2024-02-08T04:53:14.193Z,1000.89
2024-02-08T04:54:35.887Z,1000.83
2024-02-08T04:55:14.213Z,1000.85
2024-02-08T04:56:14.016Z,1000.82
2024-02-08T04:57:14.226Z,1000.82
2024-02-08T04:58:36.527Z,1000.86
2024-02-08T05:00:14.130Z,1000.78
2024-02-08T05:01:13.751Z,1000.71
2024-02-08T05:02:13.970Z,1000.68
2024-02-08T05:03:13.691Z,1000.70
2024-02-08T05:04:36.146Z,1000.65
2024-02-08T05:05:13.865Z,1000.68
2024-02-08T05:06:14.101Z,1000.69
2024-02-08T05:07:13.878Z,1000.72
2024-02-08T05:08:14.080Z,1000.67
2024-02-08T05:09:13.843Z,1000.68
2024-02-08T05:10:14.097Z,1000.69
2024-02-08T05:11:13.863Z,1000.69
2024-02-08T05:12:14.063Z,1000.69
2024-02-08T05:13:13.846Z,1000.64
2024-02-08T05:14:36.074Z,1000.53
2024-02-08T05:15:13.901Z,1000.56
2024-02-08T05:16:13.655Z,1000.48
2024-02-08T05:17:13.927Z,1000.43
2024-02-08T05:18:13.978Z,1000.44
2024-02-08T05:19:15.012Z,1000.45
2024-02-08T05:20:13.636Z,1000.51
2024-02-08T05:21:13.891Z,1000.50
2024-02-08T05:22:15.313Z,1000.47
2024-02-08T05:23:13.876Z,1000.48
2024-02-08T05:24:35.649Z,1000.48
2024-02-08T05:25:14.040Z,1000.46
2024-02-08T05:26:13.693Z,1000.46
2024-02-08T05:27:13.543Z,1000.45
2024-02-08T05:28:13.739Z,1000.47
2024-02-08T05:29:13.461Z,1000.49
2024-02-08T05:30:13.715Z,1000.46
2024-02-08T05:31:13.496Z,1000.42
2024-02-08T05:32:13.716Z,1000.39
2024-02-08T05:33:17.762Z,1000.42
2024-02-08T05:34:35.876Z,1000.43
2024-02-08T05:35:13.705Z,1000.40
2024-02-08T05:36:13.391Z,1000.41
2024-02-08T05:37:13.747Z,1000.41
2024-02-08T05:38:13.390Z,1000.39
2024-02-08T05:39:13.630Z,1000.37
2024-02-08T05:40:13.409Z,1000.29
2024-02-08T05:41:13.611Z,1000.31
2024-02-08T05:42:13.401Z,1000.27
2024-02-08T05:43:13.674Z,1000.25
2024-02-08T05:44:35.412Z,1000.25
2024-02-08T05:45:13.735Z,1000.23
2024-02-08T05:46:13.537Z,1000.22
2024-02-08T05:47:13.717Z,1000.26
2024-02-08T05:48:13.554Z,1000.24
2024-02-08T05:49:13.829Z,1000.21
2024-02-08T05:50:13.582Z,1000.23
2024-02-08T05:51:13.215Z,1000.19
2024-02-08T05:52:13.549Z,1000.17
2024-02-08T05:53:13.223Z,1000.13
2024-02-08T05:54:34.956Z,1000.16
2024-02-08T05:55:13.338Z,1000.12
2024-02-08T05:56:13.578Z,1000.09
2024-02-08T05:57:13.356Z,1000.12
2024-02-08T05:58:13.596Z,1000.14
2024-02-08T05:59:13.302Z,1000.12
2024-02-08T06:00:13.585Z,1000.20
2024-02-08T06:01:13.367Z,1000.20
2024-02-08T06:02:13.641Z,1000.20
2024-02-08T06:03:13.288Z,1000.18
2024-02-08T06:04:36.425Z,1000.19
2024-02-08T06:05:14.851Z,1000.15
2024-02-08T06:06:13.163Z,1000.17
2024-02-08T06:07:13.397Z,1000.15
2024-02-08T06:08:13.133Z,1000.11
2024-02-08T06:09:13.351Z,1000.13
2024-02-08T06:10:13.161Z,1000.11
2024-02-08T06:11:13.353Z,1000.12
2024-02-08T06:12:13.103Z,1000.14
2024-02-08T06:13:13.370Z,1000.12
2024-02-08T06:14:34.201Z,1000.04
2024-02-08T06:15:12.989Z,1000.01
2024-02-08T06:16:13.370Z,999.99
2024-02-08T06:17:13.006Z,999.97
2024-02-08T06:18:13.297Z,999.96
2024-02-08T06:19:13.110Z,999.89
2024-02-08T06:20:13.245Z,999.93
2024-02-08T06:21:12.988Z,999.95
2024-02-08T06:22:13.304Z,999.94
2024-02-08T06:23:12.993Z,1000.01
2024-02-08T06:24:34.019Z,1000.03
2024-02-08T06:25:13.074Z,1000.02
2024-02-08T06:26:13.315Z,1000.07
2024-02-08T06:27:13.043Z,1000.09
2024-02-08T06:28:13.371Z,1000.06
2024-02-08T06:29:13.059Z,999.99
2024-02-08T06:30:13.343Z,1000.00
2024-02-08T06:31:13.124Z,999.96
2024-02-08T06:32:13.296Z,999.91
2024-02-08T06:33:13.133Z,999.94
2024-02-08T06:34:34.609Z,999.97
2024-02-08T06:35:13.460Z,999.92
2024-02-08T06:36:12.989Z,999.89
2024-02-08T06:37:13.255Z,999.90
2024-02-08T06:38:12.984Z,999.86
2024-02-08T06:39:12.728Z,999.89
2024-02-08T06:40:13.003Z,999.89
2024-02-08T06:41:13.206Z,999.90
2024-02-08T06:42:12.973Z,999.83
2024-02-08T06:43:12.795Z,999.83
2024-02-08T06:44:34.539Z,999.80
2024-02-08T06:45:12.840Z,999.81
2024-02-08T06:46:13.122Z,999.88
2024-02-08T06:47:12.848Z,999.88
2024-02-08T06:48:13.179Z,999.93
2024-02-08T06:49:12.952Z,999.85
2024-02-08T06:50:13.205Z,999.81
2024-02-08T06:51:12.845Z,999.76
2024-02-08T06:52:13.124Z,999.83
2024-02-08T06:53:12.867Z,999.81
2024-02-08T06:54:34.237Z,999.83
2024-02-08T06:55:22.267Z,999.85
2024-02-08T06:56:13.041Z,999.87
2024-02-08T06:57:12.847Z,999.86
2024-02-08T06:58:13.162Z,999.83
2024-02-08T06:59:12.800Z,999.87
2024-02-08T07:00:12.518Z,999.90
2024-02-08T07:01:12.894Z,999.86
2024-02-08T07:02:12.598Z,999.87
2024-02-08T07:03:12.794Z,999.85
2024-02-08T07:04:34.110Z,999.73
2024-02-08T07:05:13.543Z,999.73
2024-02-08T07:06:12.597Z,999.74
2024-02-08T07:07:12.960Z,999.77
2024-02-08T07:08:12.698Z,999.80
2024-02-08T07:09:12.863Z,999.76
2024-02-08T07:10:12.688Z,999.75
2024-02-08T07:11:12.883Z,999.85
2024-02-08T07:12:12.605Z,999.82
2024-02-08T07:13:12.858Z,999.77
2024-02-08T07:14:33.616Z,999.79
2024-02-08T07:15:12.439Z,999.85
2024-02-08T07:16:12.746Z,999.83
2024-02-08T07:17:12.446Z,999.83
2024-02-08T07:18:13.974Z,999.86
2024-02-08T07:19:12.561Z,999.80
2024-02-08T07:20:12.882Z,999.74
2024-02-08T07:21:12.412Z,999.67
2024-02-08T07:22:12.662Z,999.61
2024-02-08T07:23:12.427Z,999.58
2024-02-08T07:24:34.780Z,999.61
2024-02-08T07:25:12.592Z,999.55
2024-02-08T07:26:12.332Z,999.55
2024-02-08T07:27:12.586Z,999.57
2024-02-08T07:28:12.406Z,999.51
2024-02-08T07:29:12.571Z,999.48
2024-02-08T07:30:12.313Z,999.46
2024-02-08T07:31:12.602Z,999.35
2024-02-08T07:32:12.313Z,999.35
2024-02-08T07:33:12.674Z,999.28
2024-02-08T07:34:36.501Z,999.24
2024-02-08T07:35:13.667Z,999.24
2024-02-08T07:36:12.440Z,999.19
2024-02-08T07:37:12.198Z,999.24
2024-02-08T07:38:12.426Z,999.23
2024-02-08T07:39:12.158Z,999.26
2024-02-08T07:40:13.399Z,999.26
2024-02-08T07:41:12.145Z,999.28
2024-02-08T07:42:12.401Z,999.24
2024-02-08T07:43:12.177Z,999.24
2024-02-08T07:44:36.231Z,999.25
2024-02-08T07:45:15.173Z,999.23
2024-02-08T07:46:14.538Z,999.23
2024-02-08T07:47:14.395Z,999.24
2024-02-08T07:48:14.414Z,999.26
2024-02-08T07:49:16.425Z,999.23
2024-02-08T07:50:12.928Z,999.26
2024-02-08T07:51:14.491Z,999.25
2024-02-08T07:52:13.333Z,999.20
2024-02-08T07:53:13.160Z,999.26
2024-02-08T07:54:32.511Z,999.18
2024-02-08T07:55:13.412Z,999.21
2024-02-08T07:56:12.885Z,999.17
2024-02-08T07:57:14.428Z,999.12
2024-02-08T07:58:14.267Z,999.06
2024-02-08T07:59:14.041Z,999.02
2024-02-08T08:00:14.354Z,998.99
2024-02-08T08:01:14.304Z,998.93
2024-02-08T08:02:14.087Z,998.93
2024-02-08T08:03:14.374Z,998.92
2024-02-08T08:04:32.371Z,998.87
2024-02-08T08:05:14.445Z,998.91
2024-02-08T08:06:13.996Z,998.85
2024-02-08T08:07:14.442Z,998.90
2024-02-08T08:08:15.197Z,998.81
2024-02-08T08:09:13.024Z,998.77
2024-02-08T08:10:14.556Z,998.74
2024-02-08T08:11:14.281Z,998.71
2024-02-08T08:12:14.015Z,998.64
2024-02-08T08:13:13.869Z,998.67
2024-02-08T08:14:34.132Z,998.62
2024-02-08T08:15:13.941Z,998.56
2024-02-08T08:16:14.388Z,998.57
2024-02-08T08:17:14.074Z,998.54
2024-02-08T08:18:13.889Z,998.55
2024-02-08T08:19:19.621Z,998.54
2024-02-08T08:20:20.584Z,998.53
2024-02-08T08:21:12.654Z,998.51
2024-02-08T08:22:13.413Z,998.48
2024-02-08T08:23:13.150Z,998.49
2024-02-08T08:24:31.902Z,998.45
2024-02-08T08:25:15.300Z,998.44
2024-02-08T08:26:12.971Z,998.46
2024-02-08T08:27:13.819Z,998.48
2024-02-08T08:28:14.143Z,998.38
2024-02-08T08:29:13.884Z,998.39
2024-02-08T08:30:13.673Z,998.37
2024-02-08T08:31:12.590Z,998.34
2024-02-08T08:32:12.408Z,998.32
2024-02-08T08:33:15.179Z,998.32
2024-02-08T08:34:31.907Z,998.30
2024-02-08T08:35:13.567Z,998.29
2024-02-08T08:36:13.397Z,998.28
2024-02-08T08:37:12.810Z,998.26
2024-02-08T08:38:13.579Z,998.27
2024-02-08T08:39:13.054Z,998.32
2024-02-08T08:40:13.926Z,998.30
2024-02-08T08:41:13.880Z,998.25
2024-02-08T08:42:14.001Z,998.26
2024-02-08T08:43:12.847Z,998.25
2024-02-08T08:44:32.175Z,998.26
2024-02-08T08:45:13.833Z,998.29
2024-02-08T08:46:13.726Z,998.29
2024-02-08T08:47:12.375Z,998.30
2024-02-08T08:48:13.917Z,998.28
2024-02-08T08:49:12.552Z,998.28
2024-02-08T08:50:12.686Z,998.30
2024-02-08T08:51:14.368Z,998.26
2024-02-08T08:52:13.706Z,998.32
2024-02-08T08:53:15.356Z,998.25
2024-02-08T08:54:31.792Z,998.27
2024-02-08T08:55:13.579Z,998.27
2024-02-08T08:56:13.911Z,998.23
2024-02-08T08:57:13.829Z,998.25
2024-02-08T08:58:13.714Z,998.21
2024-02-08T08:59:13.837Z,998.23
2024-02-08T09:00:12.331Z,998.24
2024-02-08T09:01:13.361Z,998.18
2024-02-08T09:02:13.451Z,998.16
2024-02-08T09:03:13.389Z,998.16
2024-02-08T09:04:31.696Z,998.10
2024-02-08T09:05:12.505Z,998.11
2024-02-08T09:06:13.756Z,998.06
2024-02-08T09:07:13.941Z,998.11
2024-02-08T09:08:13.399Z,998.08
2024-02-08T09:09:13.206Z,998.02
2024-02-08T09:10:13.613Z,997.97
2024-02-08T09:11:12.314Z,997.96
2024-02-08T09:12:12.329Z,997.90
2024-02-08T09:13:13.472Z,997.90
2024-02-08T09:14:32.447Z,997.79
2024-02-08T09:15:13.455Z,997.85
2024-02-08T09:16:13.346Z,997.82
2024-02-08T09:17:24.533Z,997.84
2024-02-08T09:18:12.688Z,997.84
2024-02-08T09:19:13.285Z,997.84
2024-02-08T09:20:13.536Z,997.84
2024-02-08T09:21:13.325Z,997.79
2024-02-08T09:22:13.220Z,997.79
2024-02-08T09:23:13.480Z,997.83
2024-02-08T09:24:37.468Z,997.81
2024-02-08T09:25:26.679Z,997.80
2024-02-08T09:26:14.355Z,997.73
2024-02-08T09:27:13.112Z,997.67
2024-02-08T09:28:13.431Z,997.67
2024-02-08T09:29:13.303Z,997.62
2024-02-08T09:30:11.956Z,997.61
2024-02-08T09:31:13.498Z,997.62
2024-02-08T09:32:12.704Z,997.63
2024-02-08T09:33:14.047Z,997.58
2024-02-08T09:34:31.433Z,997.56
2024-02-08T09:35:11.916Z,997.53
2024-02-08T09:36:13.867Z,997.47
2024-02-08T09:37:13.209Z,997.48
2024-02-08T09:38:13.017Z,997.44
2024-02-08T09:39:13.321Z,997.46
2024-02-08T09:40:12.695Z,997.41
2024-02-08T09:41:12.583Z,997.46
2024-02-08T09:42:11.953Z,997.35
2024-02-08T09:43:13.376Z,997.30
2024-02-08T09:44:32.972Z,997.33
2024-02-08T09:45:13.766Z,997.32
2024-02-08T09:46:13.812Z,997.32
2024-02-08T09:47:12.876Z,997.30
2024-02-08T09:48:12.462Z,997.34
2024-02-08T09:49:13.043Z,997.29
2024-02-08T09:50:13.386Z,997.21
2024-02-08T09:51:13.163Z,997.13
2024-02-08T09:52:12.961Z,997.15
2024-02-08T09:53:12.273Z,997.08
2024-02-08T09:54:33.840Z,997.04
2024-02-08T09:55:12.388Z,996.96
2024-02-08T09:56:13.216Z,996.96
2024-02-08T09:57:11.788Z,996.83
2024-02-08T09:58:12.188Z,996.84
2024-02-08T09:59:12.440Z,996.75
2024-02-08T10:00:13.110Z,996.69
2024-02-08T10:01:12.894Z,996.76
2024-02-08T10:02:13.216Z,996.66
2024-02-08T10:03:13.005Z,996.68
2024-02-08T10:04:32.392Z,996.57
2024-02-08T10:05:13.080Z,996.55
2024-02-08T10:06:12.909Z,996.55
2024-02-08T10:07:12.250Z,996.54
2024-02-08T10:08:13.186Z,996.50
2024-02-08T10:09:12.859Z,996.54
2024-02-08T10:10:13.731Z,996.44
2024-02-08T10:11:10.947Z,996.43
2024-02-08T10:12:10.698Z,996.38
2024-02-08T10:13:11.957Z,996.33
2024-02-08T10:14:32.788Z,996.35
2024-02-08T10:15:12.043Z,996.32
2024-02-08T10:16:10.944Z,996.34
2024-02-08T10:17:10.601Z,996.37
2024-02-08T10:18:12.444Z,996.32
2024-02-08T10:19:10.992Z,996.30
2024-02-08T10:20:11.972Z,996.34
2024-02-08T10:21:10.669Z,996.36
2024-02-08T10:22:10.939Z,996.35
2024-02-08T10:23:11.605Z,996.29
2024-02-08T10:24:32.510Z,996.31
2024-02-08T10:25:12.312Z,996.40
2024-02-08T10:26:10.610Z,996.38
2024-02-08T10:27:11.524Z,996.39
2024-02-08T10:28:10.703Z,996.36
2024-02-08T10:29:11.801Z,996.34
2024-02-08T10:30:11.567Z,996.31
2024-02-08T10:31:11.879Z,996.32
2024-02-08T10:32:10.618Z,996.31
2024-02-08T10:33:12.009Z,996.24
2024-02-08T10:34:31.729Z,996.26
2024-02-08T10:35:10.513Z,996.27
2024-02-08T10:36:10.738Z,996.26
2024-02-08T10:37:10.491Z,996.18
2024-02-08T10:38:10.731Z,996.19
2024-02-08T10:39:19.792Z,996.18
2024-02-08T10:40:11.513Z,996.20
2024-02-08T10:41:11.815Z,996.21
2024-02-08T10:42:10.605Z,996.23
2024-02-08T10:43:10.391Z,996.23
2024-02-08T10:44:31.702Z,996.28
2024-02-08T10:45:10.509Z,996.27
2024-02-08T10:46:11.730Z,996.24
2024-02-08T10:47:10.776Z,996.25
2024-02-08T10:48:10.818Z,996.25
2024-02-08T10:49:10.994Z,996.25
2024-02-08T10:50:11.827Z,996.30
2024-02-08T10:51:13.007Z,996.30
2024-02-08T10:52:11.237Z,996.33
2024-02-08T10:53:10.493Z,996.34
2024-02-08T10:54:33.446Z,996.31
2024-02-08T10:55:11.544Z,996.28
2024-02-08T10:56:11.703Z,996.34
2024-02-08T10:57:12.230Z,996.34
2024-02-08T10:58:09.787Z,996.33
2024-02-08T10:59:09.694Z,996.35
2024-02-08T11:00:10.444Z,996.37
2024-02-08T11:01:10.286Z,996.42
2024-02-08T11:02:10.861Z,996.44
2024-02-08T11:03:11.440Z,996.44
2024-02-08T11:04:32.434Z,996.49
2024-02-08T11:05:10.617Z,996.48
2024-02-08T11:06:10.276Z,996.45
2024-02-08T11:07:10.556Z,996.46
2024-02-08T11:08:10.279Z,996.41
2024-02-08T11:09:10.515Z,996.42
2024-02-08T11:10:10.307Z,996.34
2024-02-08T11:11:09.567Z,996.34
2024-02-08T11:12:11.520Z,996.27
2024-02-08T11:13:10.366Z,996.19
2024-02-08T11:14:32.085Z,996.01
2024-02-08T11:15:10.389Z,995.98
2024-02-08T11:16:10.562Z,995.97
2024-02-08T11:17:10.358Z,995.94
2024-02-08T11:18:12.061Z,995.89
2024-02-08T11:19:10.325Z,995.89
2024-02-08T11:20:10.556Z,995.80
2024-02-08T11:21:10.263Z,995.70
2024-02-08T11:22:10.063Z,995.56
2024-02-08T11:23:10.282Z,995.44
2024-02-08T11:24:31.560Z,995.47
2024-02-08T11:25:10.376Z,995.52
2024-02-08T11:26:10.096Z,995.68
2024-02-08T11:27:10.326Z,995.66
2024-02-08T11:28:18.810Z,995.82
2024-02-08T11:29:11.364Z,995.76
2024-02-08T11:30:10.054Z,995.69
2024-02-08T11:31:10.361Z,995.52
2024-02-08T11:32:10.070Z,995.50
2024-02-08T11:33:10.383Z,995.56
2024-02-08T11:34:32.092Z,995.63
2024-02-08T11:35:10.197Z,995.60
2024-02-08T11:36:20.393Z,995.58
2024-02-08T11:37:10.236Z,995.64
2024-02-08T11:38:09.957Z,995.61
2024-02-08T11:39:10.216Z,995.49
2024-02-08T11:40:10.025Z,995.54
2024-02-08T11:41:11.162Z,995.53
2024-02-08T11:42:09.942Z,995.49
2024-02-08T11:43:10.262Z,995.45
2024-02-08T11:44:31.963Z,995.39
2024-02-08T11:45:10.909Z,995.40
2024-02-08T11:46:10.053Z,995.32
2024-02-08T11:47:09.812Z,995.25
2024-02-08T11:48:10.215Z,995.20
2024-02-08T11:49:09.879Z,995.14
2024-02-08T11:50:10.483Z,995.06
2024-02-08T11:51:09.861Z,995.12
2024-02-08T11:52:10.098Z,995.05
2024-02-08T11:53:09.837Z,995.10
2024-02-08T11:54:32.118Z,995.03
2024-02-08T11:55:11.109Z,994.98
2024-02-08T11:56:09.677Z,994.99
2024-02-08T11:57:12.980Z,994.95
2024-02-08T11:58:10.686Z,994.92
2024-02-08T11:59:09.893Z,994.94
2024-02-08T12:00:09.655Z,994.91
2024-02-08T12:01:10.005Z,994.87
2024-02-08T12:02:09.979Z,994.84
2024-02-08T12:03:12.775Z,994.87
2024-02-08T12:04:31.236Z,994.84
2024-02-08T12:05:10.083Z,994.81
2024-02-08T12:06:09.749Z,994.72
2024-02-08T12:07:10.052Z,994.72
2024-02-08T12:08:11.123Z,994.69
2024-02-08T12:09:11.849Z,994.71
2024-02-08T12:10:09.793Z,994.65
2024-02-08T12:11:09.480Z,994.65
2024-02-08T12:12:09.742Z,994.60
2024-02-08T12:13:09.539Z,994.56
2024-02-08T12:14:30.928Z,994.53
2024-02-08T12:15:11.958Z,994.54
2024-02-08T12:16:10.884Z,994.52
2024-02-08T12:17:09.638Z,994.54